createdAt,value
2018-12-27T00:01:25.271Z,44.75
2018-12-27T00:07:20.283Z,24.59
2018-12-27T00:13:15.276Z,18.8
2018-12-27T00:19:10.254Z,18.38
2018-12-27T00:25:05.244Z,16.78
2018-12-27T00:31:00.276Z,13.69
2018-12-27T00:36:55.319Z,12.71
2018-12-27T00:42:50.273Z,15.87
2018-12-27T00:48:45.282Z,17.41
2018-12-27T00:54:40.292Z,18.37
2018-12-27T01:00:35.272Z,18
2018-12-27T01:06:30.325Z,14.98
2018-12-27T01:12:25.299Z,11.95
2018-12-27T01:18:20.285Z,11.68
2018-12-27T01:24:15.291Z,12.5
2018-12-27T01:30:10.286Z,13.47
2018-12-27T01:36:05.286Z,12.86
2018-12-27T01:42:00.312Z,13.3
2018-12-27T01:47:55.325Z,15.47
2018-12-27T01:53:50.303Z,16.24
2018-12-27T01:59:45.300Z,14.6
2018-12-27T02:05:40.337Z,11.5
2018-12-27T02:11:35.342Z,9.88
2018-12-27T02:17:30.316Z,10.01
2018-12-27T02:23:25.351Z,8.2
2018-12-27T02:29:20.350Z,7.24
2018-12-27T02:35:15.311Z,7.53
2018-12-27T02:41:10.386Z,7.62
2018-12-27T02:47:05.326Z,6.92
2018-12-27T02:53:00.330Z,9.18
2018-12-27T02:58:55.345Z,9.25
2018-12-27T03:04:50.346Z,9.56
2018-12-27T03:10:45.340Z,8.42
2018-12-27T03:16:40.343Z,9
2018-12-27T03:22:35.359Z,7.41
2018-12-27T03:28:30.388Z,8.22
2018-12-27T03:34:25.353Z,8.35
2018-12-27T03:40:20.363Z,8.09
2018-12-27T03:46:15.371Z,7.44
2018-12-27T03:52:10.375Z,6.58
2018-12-27T03:58:05.391Z,6.41
2018-12-27T04:04:01.478Z,7.54
2018-12-27T04:09:55.374Z,6.39
2018-12-27T04:15:50.409Z,5.67
2018-12-27T04:21:45.381Z,4.52
2018-12-27T04:27:40.371Z,4.57
2018-12-27T04:33:35.394Z,5.48
2018-12-27T04:39:30.499Z,5.32
2018-12-27T04:45:25.437Z,4.99
2018-12-27T04:51:20.446Z,5.53
2018-12-27T04:57:15.383Z,6.58
2018-12-27T05:03:10.389Z,6.26
2018-12-27T05:09:05.424Z,5.91
2018-12-27T05:15:00.416Z,5.72
2018-12-27T05:20:55.402Z,7.43
2018-12-27T05:26:50.415Z,6.58
2018-12-27T05:32:45.472Z,5.66
2018-12-27T05:38:40.423Z,6.26
2018-12-27T05:44:35.420Z,7.15
2018-12-27T05:50:30.460Z,6.07
2018-12-27T05:56:25.420Z,7.95
2018-12-27T06:02:20.417Z,11.36
2018-12-27T06:08:15.418Z,11.88
2018-12-27T06:14:10.446Z,13.78
2018-12-27T06:20:05.475Z,109.08
2018-12-27T06:26:00.465Z,40.2
2018-12-27T06:31:55.439Z,22.93
2018-12-27T06:37:50.441Z,21.73
2018-12-27T06:43:45.442Z,17.48
2018-12-27T06:49:40.471Z,12.37
2018-12-27T06:55:35.468Z,13.46
2018-12-27T07:01:30.496Z,12.5
2018-12-27T07:07:25.467Z,11.97
2018-12-27T07:13:20.458Z,11.51
2018-12-27T07:19:15.465Z,12.67
2018-12-27T07:25:10.470Z,25.03
2018-12-27T07:31:05.478Z,25.69
2018-12-27T07:37:00.478Z,18.07
2018-12-27T07:42:55.531Z,16.03
2018-12-27T07:48:50.474Z,16.55
2018-12-27T07:54:45.480Z,15.47
2018-12-27T08:00:40.496Z,21.51
2018-12-27T08:06:35.492Z,18.66
2018-12-27T08:12:30.517Z,15.52
2018-12-27T08:18:25.503Z,17.06
2018-12-27T08:24:20.580Z,17.06
2018-12-27T08:30:15.509Z,19.3
2018-12-27T08:36:10.494Z,16.54
2018-12-27T08:42:05.498Z,21.8
2018-12-27T08:48:00.546Z,23.41
2018-12-27T08:53:55.523Z,21.35
2018-12-27T08:59:50.519Z,21.82
2018-12-27T09:05:45.534Z,21.35
2018-12-27T09:11:40.529Z,20.13
2018-12-27T09:17:35.534Z,21.59
2018-12-27T09:23:30.526Z,24.48
2018-12-27T09:29:25.549Z,24.69
2018-12-27T09:35:26.196Z,28.17
2018-12-27T09:41:15.564Z,34.82
2018-12-27T09:47:10.561Z,81.35
2018-12-27T09:53:05.553Z,26.07
2018-12-27T09:59:00.561Z,25.62
2018-12-27T10:04:55.569Z,37.75
2018-12-27T10:10:50.555Z,30.83
2018-12-27T10:16:45.583Z,33.33
2018-12-27T10:22:40.550Z,37.67
2018-12-27T10:28:35.573Z,38.25
2018-12-27T10:34:30.567Z,39.33
2018-12-27T10:40:25.586Z,29.22
2018-12-27T10:46:20.570Z,28.6
2018-12-27T10:52:15.617Z,29.07
2018-12-27T10:58:10.562Z,26.75
2018-12-27T11:04:05.693Z,32.14
2018-12-27T11:10:00.571Z,31.51
2018-12-27T11:15:55.583Z,31.99
2018-12-27T11:21:50.620Z,34.66
2018-12-27T11:27:45.594Z,33.17
2018-12-27T11:33:40.597Z,35.27
2018-12-27T11:39:35.636Z,37.21
2018-12-27T11:45:30.612Z,40.97
2018-12-27T11:51:25.634Z,45.54
2018-12-27T11:57:20.612Z,40.36
2018-12-27T12:03:15.613Z,36.47
2018-12-27T12:09:10.598Z,37.58
2018-12-27T12:15:05.652Z,35.21
2018-12-27T12:21:00.619Z,34.64
2018-12-27T12:26:55.676Z,35.06
2018-12-27T12:32:50.665Z,33.55
2018-12-27T12:38:45.655Z,30.94
2018-12-27T12:44:40.669Z,31.55
2018-12-27T12:50:35.669Z,37.29
2018-12-27T12:56:30.680Z,62.76
2018-12-27T13:02:25.665Z,47.98
2018-12-27T13:08:20.653Z,39.62
2018-12-27T13:14:15.654Z,29.83
2018-12-27T13:20:10.658Z,28.62
2018-12-27T13:26:05.688Z,28.6
2018-12-27T13:32:00.664Z,33.54
2018-12-27T13:37:55.684Z,45.6
2018-12-27T13:43:50.670Z,31.34
2018-12-27T13:49:45.688Z,22.94
2018-12-27T13:55:40.661Z,28.85
2018-12-27T14:01:35.705Z,40.31
2018-12-27T14:07:30.747Z,23.35
2018-12-27T14:13:25.686Z,17.38
2018-12-27T14:19:20.689Z,18.13
2018-12-27T14:25:15.708Z,21.1
2018-12-27T14:31:10.691Z,15.76
2018-12-27T14:37:05.703Z,14.27
2018-12-27T14:43:00.694Z,13.7
2018-12-27T14:48:55.720Z,13.2
2018-12-27T14:54:50.700Z,12.24
2018-12-27T15:00:45.736Z,15.35
2018-12-27T15:06:46.866Z,17.48
2018-12-27T15:12:35.714Z,23.03
2018-12-27T15:18:30.744Z,24.93
2018-12-27T15:24:25.726Z,27.7
2018-12-27T15:30:20.754Z,29.34
2018-12-27T15:36:15.749Z,41.36
2018-12-27T15:42:10.733Z,49.36
2018-12-27T15:48:05.753Z,36.23
2018-12-27T15:54:00.737Z,29.72
2018-12-27T15:59:55.720Z,26.29
2018-12-27T16:05:50.755Z,24.51
2018-12-27T16:11:45.753Z,28.8
2018-12-27T16:17:40.758Z,34.32
2018-12-27T16:23:35.770Z,31.1
2018-12-27T16:29:30.747Z,26.6
2018-12-27T16:35:25.754Z,29.85
2018-12-27T16:41:20.752Z,23.99
2018-12-27T16:47:15.750Z,32.23
2018-12-27T16:53:10.767Z,31.13
2018-12-27T16:59:05.760Z,27.54
2018-12-27T17:05:00.770Z,34.83
2018-12-27T17:10:55.789Z,30.03
2018-12-27T17:16:50.760Z,28.61
2018-12-27T17:22:45.790Z,37.77
2018-12-27T17:28:40.804Z,38.28
2018-12-27T17:34:35.822Z,40.28
2018-12-27T17:40:30.782Z,41.07
2018-12-27T17:46:25.792Z,55.12
2018-12-27T17:52:20.805Z,42.63
2018-12-27T17:58:15.829Z,36.89
2018-12-27T18:04:10.816Z,27.96
2018-12-27T18:10:05.795Z,30.71
2018-12-27T18:16:00.810Z,33.21
2018-12-27T18:21:55.836Z,31.97
2018-12-27T18:27:50.791Z,62.93
2018-12-27T18:33:45.815Z,80.19
2018-12-27T18:39:40.833Z,64.75
2018-12-27T18:45:35.822Z,37.52
2018-12-27T18:51:30.832Z,34.23
2018-12-27T18:57:25.832Z,35.24
2018-12-27T19:03:20.850Z,41
2018-12-27T19:09:15.827Z,41.4
2018-12-27T19:15:10.841Z,44.59
2018-12-27T19:21:05.834Z,38.14
2018-12-27T19:27:00.843Z,32.63
2018-12-27T19:32:55.855Z,37.49
2018-12-27T19:38:50.861Z,36.14
2018-12-27T19:44:45.867Z,33.15
2018-12-27T19:50:40.873Z,38.67
2018-12-27T19:56:35.880Z,45.71
2018-12-27T20:02:30.862Z,50.62
2018-12-27T20:08:25.869Z,41.42
2018-12-27T20:14:20.883Z,46.93
2018-12-27T20:20:15.882Z,47.79
2018-12-27T20:26:10.886Z,50.75
2018-12-27T20:32:05.885Z,53.98
2018-12-27T20:38:06.562Z,54.41
2018-12-27T20:43:55.891Z,50.18
2018-12-27T20:49:50.902Z,44.54
2018-12-27T20:55:45.893Z,46.74
2018-12-27T21:01:40.883Z,41.74
2018-12-27T21:07:35.884Z,44.25
2018-12-27T21:13:30.895Z,43.02
2018-12-27T21:19:25.896Z,38.93
2018-12-27T21:25:20.897Z,34
2018-12-27T21:31:15.966Z,32.92
2018-12-27T21:37:10.924Z,36.07
2018-12-27T21:43:05.962Z,51.51
2018-12-27T21:49:00.951Z,47.9
2018-12-27T21:54:55.906Z,48.95
2018-12-27T22:00:50.922Z,48.98
2018-12-27T22:06:45.921Z,48.78
2018-12-27T22:12:40.961Z,52.73
2018-12-27T22:18:35.989Z,57.14
2018-12-27T22:24:30.939Z,58.58
2018-12-27T22:30:25.931Z,50.71
2018-12-27T22:36:20.977Z,52.89
2018-12-27T22:42:15.969Z,49.1
2018-12-27T22:48:10.944Z,47.9
2018-12-27T22:54:05.945Z,47.5
2018-12-27T23:00:00.971Z,52.48
2018-12-27T23:05:55.948Z,49.7
2018-12-27T23:11:50.940Z,38.97
2018-12-27T23:17:45.952Z,39.5
2018-12-27T23:23:40.971Z,39.65
2018-12-27T23:29:35.946Z,47.34
2018-12-27T23:35:30.959Z,44.59
2018-12-27T23:41:25.978Z,40.24
2018-12-27T23:47:20.991Z,44.23
2018-12-27T23:53:15.993Z,43.78
2018-12-27T23:59:10.976Z,47.6
